createdAt,value
2022-10-11T00:03:05.915Z,2.85
2022-10-11T00:08:08.558Z,2.38
2022-10-11T00:13:12.488Z,2.60
2022-10-11T00:18:15.092Z,2.75
2022-10-11T00:23:18.028Z,3.22
2022-10-11T00:28:22.072Z,2.80
2022-10-11T00:33:24.900Z,3.20
2022-10-11T00:38:27.802Z,3.42
2022-10-11T00:43:33.125Z,2.92
2022-10-11T00:48:41.333Z,3.10
2022-10-11T00:53:44.737Z,3.33
2022-10-11T00:58:48.787Z,3.28
2022-10-11T01:03:51.555Z,3.15
2022-10-11T01:08:54.762Z,3.17
2022-10-11T01:14:16.028Z,2.80
2022-10-11T01:19:30.263Z,2.63
2022-10-11T01:24:49.977Z,1.70
2022-10-11T01:30:02.729Z,1.70
2022-10-11T01:35:10.862Z,1.70
2022-10-11T01:40:15.601Z,1.48
2022-10-11T01:45:19.931Z,1.30
2022-10-11T01:50:39.013Z,1.38
2022-10-11T01:55:48.088Z,0.82
2022-10-11T02:00:53.362Z,1.20
2022-10-11T02:06:01.138Z,1.13
2022-10-11T02:11:09.954Z,1.20
2022-10-11T02:16:14.393Z,0.80
2022-10-11T02:21:20.773Z,0.93
2022-10-11T02:26:24.547Z,1.23
2022-10-11T02:31:27.329Z,1.83
2022-10-11T02:36:37.704Z,1.48
2022-10-11T02:41:43.047Z,0.88
2022-10-11T02:46:46.626Z,1.08
2022-10-11T02:51:50.587Z,1.00
2022-10-11T02:56:53.286Z,1.05
2022-10-11T03:01:55.956Z,1.45
2022-10-11T03:06:59.965Z,0.90
2022-10-11T03:12:02.584Z,1.42
2022-10-11T03:17:31.080Z,1.10
2022-10-11T03:22:29.263Z,1.00
2022-10-11T03:27:31.915Z,1.17
2022-10-11T03:32:34.634Z,1.00
2022-10-11T03:37:38.749Z,1.10
2022-10-11T03:42:41.397Z,1.10
2022-10-11T03:47:44.063Z,1.30
2022-10-11T03:52:48.033Z,1.17
2022-10-11T03:57:50.787Z,1.30
2022-10-11T04:02:53.430Z,1.08
2022-10-11T04:07:57.391Z,1.10
2022-10-11T04:13:00.017Z,1.55
2022-10-11T04:18:02.615Z,0.82
2022-10-11T04:23:06.727Z,0.82
2022-10-11T04:28:09.637Z,0.85
2022-10-11T04:33:12.290Z,0.90
2022-10-11T04:38:16.241Z,1.00
2022-10-11T04:43:18.996Z,0.98
2022-10-11T04:48:21.619Z,1.00
2022-10-11T04:53:25.715Z,0.98
2022-10-11T04:58:28.653Z,0.95
2022-10-11T05:03:31.497Z,1.00
2022-10-11T05:08:35.521Z,0.95
2022-10-11T05:13:38.649Z,1.00
2022-10-11T05:18:41.560Z,0.98
2022-10-11T05:23:45.985Z,0.80
2022-10-11T05:28:48.971Z,1.00
2022-10-11T05:33:51.658Z,1.08
2022-10-11T05:38:55.622Z,0.98
2022-10-11T05:43:58.262Z,0.85
2022-10-11T05:49:00.958Z,0.93
2022-10-11T05:54:05.089Z,1.17
2022-10-11T05:59:07.730Z,1.08
2022-10-11T06:04:11.755Z,1.05
2022-10-11T06:09:15.775Z,1.60
2022-10-11T06:14:18.841Z,1.48
2022-10-11T06:19:21.475Z,1.67
2022-10-11T06:24:25.912Z,1.30
2022-10-11T06:29:28.524Z,1.60
2022-10-11T06:34:31.121Z,1.85
2022-10-11T06:39:35.216Z,1.98
2022-10-11T06:44:37.889Z,2.17
2022-10-11T06:49:40.505Z,1.45
2022-10-11T06:54:45.613Z,1.20
2022-10-11T06:59:48.252Z,1.77
2022-10-11T07:04:50.855Z,1.27
2022-10-11T07:09:54.839Z,2.15
2022-10-11T07:14:57.435Z,2.30
2022-10-11T07:20:00.053Z,1.50
2022-10-11T07:25:04.482Z,1.52
2022-10-11T07:30:08.508Z,1.58
2022-10-11T07:35:11.193Z,1.70
2022-10-11T07:40:15.250Z,2.42
2022-10-11T07:45:18.011Z,1.88
2022-10-11T07:50:20.920Z,2.45
2022-10-11T07:55:25.584Z,2.35
2022-10-11T08:00:28.228Z,1.90
2022-10-11T08:05:31.202Z,2.15
2022-10-11T08:10:39.422Z,1.83
2022-10-11T08:15:42.292Z,2.03
2022-10-11T08:20:45.743Z,1.70
2022-10-11T08:25:49.736Z,1.20
2022-10-11T08:30:53.708Z,1.63
2022-10-11T08:35:57.370Z,2.10
2022-10-11T08:41:02.346Z,2.25
2022-10-11T08:46:05.809Z,1.60
2022-10-11T08:51:16.298Z,1.77
2022-10-11T08:56:21.389Z,1.10
2022-10-11T09:01:25.988Z,1.58
2022-10-11T09:06:37.691Z,1.70
2022-10-11T09:11:53.010Z,1.80
2022-10-11T09:17:03.358Z,1.30
2022-10-11T09:22:09.462Z,1.10
2022-10-11T09:27:25.903Z,1.25
2022-10-11T09:32:41.779Z,1.02
2022-10-11T09:37:51.744Z,1.20
2022-10-11T09:42:55.900Z,1.60
2022-10-11T09:48:01.219Z,1.40
2022-10-11T09:53:07.586Z,1.17
2022-10-11T09:58:27.837Z,1.23
2022-10-11T10:03:32.376Z,1.65
2022-10-11T10:08:35.533Z,1.40
2022-10-11T10:13:47.863Z,1.17
2022-10-11T10:18:53.261Z,1.00
2022-10-11T10:23:56.642Z,0.90
2022-10-11T10:29:04.857Z,1.40
2022-10-11T10:34:13.664Z,0.98
2022-10-11T10:39:22.585Z,1.55
2022-10-11T10:44:26.719Z,1.17
2022-10-11T10:49:53.216Z,0.95
2022-10-11T10:55:00.589Z,1.40
2022-10-11T11:00:12.249Z,1.23
2022-10-11T11:05:22.992Z,1.27
2022-10-11T11:10:29.873Z,1.08
2022-10-11T11:15:38.316Z,1.27
2022-10-11T11:20:53.381Z,0.88
2022-10-11T11:26:03.910Z,1.00
2022-10-11T11:31:14.807Z,1.25
2022-10-11T11:36:20.155Z,0.82
2022-10-11T11:41:24.423Z,1.00
2022-10-11T11:46:31.044Z,1.00
2022-10-11T11:51:35.409Z,0.75
2022-10-11T11:56:48.949Z,1.33
2022-10-11T12:02:02.919Z,1.08
2022-10-11T12:07:16.669Z,0.88
2022-10-11T12:12:33.785Z,1.00
2022-10-11T12:18:01.031Z,1.08
2022-10-11T12:23:05.469Z,1.20
2022-10-11T12:28:48.647Z,1.30
2022-10-11T12:34:03.984Z,1.23
2022-10-11T12:39:54.559Z,1.38
2022-10-11T12:45:25.931Z,1.17
2022-10-11T12:50:34.866Z,1.23
2022-10-11T12:55:50.834Z,1.42
2022-10-11T13:01:24.341Z,1.17
2022-10-11T13:06:30.987Z,1.00
2022-10-11T13:11:35.975Z,1.02
2022-10-11T13:17:00.334Z,1.25
2022-10-11T13:22:06.662Z,0.90
2022-10-11T13:27:17.165Z,1.08
2022-10-11T13:32:23.874Z,1.10
2022-10-11T13:37:29.390Z,1.38
2022-10-11T13:42:33.065Z,0.70
2022-10-11T13:47:36.189Z,0.80
2022-10-11T13:52:53.757Z,0.82
2022-10-11T13:57:57.981Z,0.85
2022-10-11T14:03:03.711Z,1.10
2022-10-11T14:08:19.121Z,0.77
2022-10-11T14:13:25.043Z,1.30
2022-10-11T14:18:40.257Z,0.82
2022-10-11T14:23:44.193Z,0.90
2022-10-11T14:28:47.231Z,0.82
2022-10-11T14:33:49.905Z,0.80
2022-10-11T14:38:54.278Z,0.80
2022-10-11T14:43:57.819Z,0.77
2022-10-11T14:49:00.579Z,0.50
2022-10-11T14:54:04.806Z,0.68
2022-10-11T14:59:07.629Z,0.50
2022-10-11T15:04:10.322Z,0.77
2022-10-11T15:09:14.515Z,5.68
2022-10-11T15:14:17.871Z,0.77
2022-10-11T15:19:22.303Z,1.02
2022-10-11T15:24:27.871Z,0.80
2022-10-11T15:29:30.545Z,2.38
2022-10-11T15:34:33.194Z,1.75
2022-10-11T15:39:37.181Z,1.27
2022-10-11T15:44:39.829Z,0.90
2022-10-11T15:49:42.624Z,1.00
2022-10-11T15:54:46.552Z,0.65
2022-10-11T15:59:49.415Z,0.80
2022-10-11T16:04:54.001Z,1.35
2022-10-11T16:09:58.083Z,1.10
2022-10-11T16:15:00.701Z,1.08
2022-10-11T16:20:06.216Z,1.25
2022-10-11T16:25:10.504Z,1.50
2022-10-11T16:30:14.797Z,1.67
2022-10-11T16:35:18.031Z,2.05
2022-10-11T16:40:22.110Z,2.47
2022-10-11T16:45:24.973Z,3.03
2022-10-11T16:50:27.853Z,2.95
2022-10-11T16:55:31.855Z,3.30
2022-10-11T17:00:34.587Z,4.40
2022-10-11T17:05:37.673Z,4.15
2022-10-11T17:10:44.341Z,5.00
2022-10-11T17:15:47.095Z,5.63
2022-10-11T17:20:49.818Z,5.90
2022-10-11T17:25:54.115Z,4.10
2022-10-11T17:30:57.580Z,3.80
2022-10-11T17:36:01.512Z,5.10
2022-10-11T17:41:08.140Z,5.68
2022-10-11T17:46:12.853Z,7.30
2022-10-11T17:51:18.053Z,6.30
2022-10-11T17:56:28.153Z,8.73
2022-10-11T18:01:32.363Z,7.05
2022-10-11T18:06:39.270Z,6.28
2022-10-11T18:11:43.485Z,6.43
2022-10-11T18:16:46.544Z,6.22
2022-10-11T18:21:49.254Z,5.70
2022-10-11T18:26:53.226Z,5.85
2022-10-11T18:31:55.880Z,6.63
2022-10-11T18:36:58.640Z,7.97
2022-10-11T18:42:04.440Z,7.72
2022-10-11T18:47:07.082Z,7.47
2022-10-11T18:52:09.715Z,6.40
2022-10-11T18:57:13.664Z,5.35
2022-10-11T19:02:16.308Z,4.63
2022-10-11T19:07:19.011Z,4.90
2022-10-11T19:12:22.977Z,5.05
2022-10-11T19:17:25.782Z,5.30
2022-10-11T19:22:28.446Z,6.00
2022-10-11T19:27:32.418Z,6.35
2022-10-11T19:32:35.066Z,7.45
2022-10-11T19:37:37.875Z,7.50
2022-10-11T19:42:41.827Z,6.70
2022-10-11T19:47:44.609Z,5.95
2022-10-11T19:52:47.422Z,5.38
2022-10-11T19:57:51.415Z,5.10
2022-10-11T20:02:54.169Z,5.05
2022-10-11T20:07:56.921Z,5.32
2022-10-11T20:13:00.983Z,4.78
2022-10-11T20:18:03.781Z,5.00
2022-10-11T20:23:06.456Z,4.90
2022-10-11T20:28:10.590Z,4.55
2022-10-11T20:33:13.303Z,5.25
2022-10-11T20:38:15.903Z,5.53
2022-10-11T20:43:19.915Z,5.43
2022-10-11T20:48:22.554Z,5.45
2022-10-11T20:53:25.802Z,5.40
2022-10-11T20:58:29.910Z,4.93
2022-10-11T21:03:32.514Z,4.15
2022-10-11T21:08:36.008Z,4.47
2022-10-11T21:13:40.040Z,4.15
2022-10-11T21:18:43.319Z,3.75
2022-10-11T21:23:47.238Z,4.38
2022-10-11T21:28:51.273Z,4.60
2022-10-11T21:33:54.014Z,4.85
2022-10-11T21:38:57.641Z,4.03
2022-10-11T21:44:01.759Z,4.43
2022-10-11T21:49:04.459Z,5.40
2022-10-11T21:54:07.116Z,5.35
2022-10-11T21:59:12.552Z,4.82
2022-10-11T22:04:15.806Z,5.32
2022-10-11T22:09:18.490Z,5.30
2022-10-11T22:14:22.635Z,4.35
2022-10-11T22:19:25.578Z,5.25
2022-10-11T22:24:29.091Z,5.53
2022-10-11T22:29:34.354Z,5.55
2022-10-11T22:34:37.155Z,6.15
2022-10-11T22:39:39.748Z,4.97
2022-10-11T22:44:43.735Z,4.93
2022-10-11T22:49:46.395Z,4.03
2022-10-11T22:54:49.141Z,3.75
2022-10-11T22:59:53.259Z,3.53
2022-10-11T23:04:56.419Z,2.88
2022-10-11T23:09:58.998Z,3.13
2022-10-11T23:15:03.106Z,2.63
2022-10-11T23:20:07.036Z,3.38
2022-10-11T23:25:10.389Z,2.97
2022-10-11T23:30:15.413Z,2.90
2022-10-11T23:35:18.041Z,2.88
2022-10-11T23:40:20.662Z,2.88
2022-10-11T23:45:24.634Z,2.70
2022-10-11T23:50:27.262Z,2.85
2022-10-11T23:55:29.859Z,2.42
